Time;durP1;ratioP1;P1;durP2;ratioP2;P2;SDS_P1;SDS_P2;PMS_P1;PMS_P2;Temp;Humidity;BMP_temperature;BMP_pressure;BME280_temperature;BME280_humidity;BME280_pressure;Samples;Min_cycle;Max_cycle;Signal;HPM_P1;HPM_P2
2022/05/30 00:01:46;;;;;;;0.70;0.70;;;5.90;1.00;;;;;;5031786;28;20223;-76
2022/05/30 00:04:12;;;;;;;0.60;0.60;;;5.90;1.00;;;;;;5031879;28;20672;-77
2022/05/30 00:06:38;;;;;;;0.60;0.60;;;5.80;1.00;;;;;;5031364;28;20172;-78
2022/05/30 00:09:04;;;;;;;0.60;0.60;;;5.90;24.00;;;;;;5030978;28;20597;-76
2022/05/30 00:11:29;;;;;;;0.70;0.70;;;5.80;67.90;;;;;;5031782;28;20199;-77
2022/05/30 00:13:55;;;;;;;0.60;0.60;;;5.90;65.40;;;;;;5031637;28;20187;-78
2022/05/30 00:16:23;;;;;;;0.60;0.60;;;5.80;37.70;;;;;;5031671;28;20171;-77
2022/05/30 00:18:49;;;;;;;0.60;0.60;;;5.90;56.40;;;;;;5031566;28;20242;-76
2022/05/30 00:21:23;;;;;;;0.60;0.60;;;6.10;99.20;;;;;;5031279;28;20196;-76
2022/05/30 00:23:49;;;;;;;0.60;0.60;;;5.90;99.90;;;;;;5031116;28;20584;-77
2022/05/30 00:26:15;;;;;;;0.60;0.60;;;5.90;95.40;;;;;;5031555;28;20180;-77
2022/05/30 00:28:42;;;;;;;0.60;0.60;;;5.90;53.20;;;;;;5031362;28;20168;-76
2022/05/30 00:31:09;;;;;;;0.70;0.70;;;5.80;32.70;;;;;;5030911;28;20226;-76
2022/05/30 00:33:35;;;;;;;0.60;0.60;;;5.70;26.00;;;;;;5031760;28;20188;-76
2022/05/30 00:36:01;;;;;;;0.57;0.57;;;5.70;29.40;;;;;;5031389;28;20539;-77
2022/05/30 00:38:26;;;;;;;0.60;0.60;;;5.70;27.90;;;;;;5030979;28;20231;-77
2022/05/30 00:40:51;;;;;;;0.70;0.70;;;5.70;25.20;;;;;;5030731;28;20545;-77
2022/05/30 00:43:20;;;;;;;0.60;0.60;;;5.60;16.00;;;;;;5031904;28;20207;-76
2022/05/30 00:45:45;;;;;;;0.50;0.50;;;5.60;43.60;;;;;;5031828;28;20172;-77
2022/05/30 00:48:11;;;;;;;0.50;0.50;;;5.60;36.00;;;;;;5031802;28;20241;-77
2022/05/30 00:50:38;;;;;;;0.70;0.70;;;5.50;20.90;;;;;;5030601;28;20179;-77
2022/05/30 00:53:04;;;;;;;0.60;0.60;;;5.50;44.40;;;;;;5031261;28;20188;-77
2022/05/30 00:55:30;;;;;;;0.60;0.60;;;5.40;51.10;;;;;;5031397;28;20262;-77
2022/05/30 00:57:56;;;;;;;0.70;0.70;;;5.40;29.00;;;;;;5031138;28;20349;-76
2022/05/30 01:00:25;;;;;;;0.63;0.63;;;5.40;17.10;;;;;;5030955;28;20176;-77
2022/05/30 01:08:23;;;;;;;0.70;0.70;;;5.30;38.00;;;;;;5031427;28;20186;-77
2022/05/30 01:10:49;;;;;;;0.50;0.50;;;5.20;52.50;;;;;;5030789;28;20184;-77
2022/05/30 01:13:14;;;;;;;0.60;0.60;;;5.20;56.60;;;;;;5032059;28;20660;-77
2022/05/30 01:15:40;;;;;;;0.60;0.60;;;5.20;36.60;;;;;;5032345;28;20172;-78
2022/05/30 01:18:23;;;;;;;0.60;0.60;;;5.10;48.80;;;;;;5034029;28;20207;-78
2022/05/30 01:20:55;;;;;;;0.60;0.60;;;5.00;55.90;;;;;;5035113;28;20183;-78
2022/05/30 01:23:42;;;;;;;0.60;0.60;;;5.10;63.90;;;;;;5035546;28;20180;-77
2022/05/30 01:26:33;;;;;;;0.60;0.60;;;5.00;90.20;;;;;;5037073;28;20633;-77
2022/05/30 01:29:11;;;;;;;0.60;0.60;;;5.00;99.90;;;;;;5036298;28;20176;-76
2022/05/30 01:31:37;;;;;;;0.60;0.60;;;5.00;99.90;;;;;;5035338;28;20233;-76
2022/05/30 01:34:03;;;;;;;0.63;0.63;;;5.00;99.30;;;;;;5035527;28;20196;-77
2022/05/30 01:36:31;;;;;;;0.70;0.70;;;5.00;98.10;;;;;;5035556;28;20172;-77
2022/05/30 01:38:57;;;;;;;0.63;0.63;;;5.00;99.50;;;;;;5035481;28;20218;-77
2022/05/30 01:41:22;;;;;;;0.70;0.70;;;5.00;99.90;;;;;;5036150;28;20192;-78
2022/05/30 01:43:48;;;;;;;0.60;0.60;;;5.00;99.90;;;;;;5035700;28;20194;-78
2022/05/30 01:46:18;;;;;;;0.60;0.60;;;5.00;99.90;;;;;;5036007;28;20540;-77
2022/05/30 01:48:45;;;;;;;0.70;0.70;;;5.10;99.90;;;;;;5035770;28;20180;-79
2022/05/30 01:51:15;;;;;;;0.60;0.60;;;4.90;99.90;;;;;;5035355;28;20242;-79
2022/05/30 01:53:40;;;;;;;0.60;0.60;;;4.90;99.90;;;;;;5035895;28;20183;-78
2022/05/30 01:56:06;;;;;;;0.70;0.70;;;4.90;99.90;;;;;;5035943;28;20176;-76
2022/05/30 01:58:33;;;;;;;0.60;0.60;;;4.90;99.90;;;;;;5035141;28;20263;-78
2022/05/30 02:01:02;;;;;;;0.70;0.70;;;4.90;99.90;;;;;;5034698;28;20271;-78
2022/05/30 02:03:28;;;;;;;0.70;0.70;;;4.80;99.90;;;;;;5035062;28;20180;-78
2022/05/30 02:05:53;;;;;;;0.80;0.80;;;4.90;99.90;;;;;;5034631;28;20198;-78
2022/05/30 02:08:21;;;;;;;0.80;0.80;;;4.90;99.90;;;;;;5035348;28;20171;-77
2022/05/30 02:10:48;;;;;;;0.60;0.60;;;4.80;99.90;;;;;;5038105;28;20175;-77
2022/05/30 02:13:13;;;;;;;0.60;0.60;;;4.80;96.40;;;;;;5037842;28;20180;-77
2022/05/30 02:17:00;;;;;;;0.60;0.60;;;4.80;88.60;;;;;;5040450;28;20176;-78
2022/05/30 02:18:25;;;;;;;0.70;0.70;;;4.80;99.10;;;;;;5038516;28;20215;-78
2022/05/30 02:20:50;;;;;;;0.60;0.60;;;4.80;96.20;;;;;;5040055;28;20180;-77
2022/05/30 02:23:17;;;;;;;0.60;0.60;;;4.80;81.40;;;;;;5040922;28;20200;-77
2022/05/30 02:25:43;;;;;;;0.60;0.60;;;4.70;74.70;;;;;;5043073;28;20188;-78
2022/05/30 02:28:09;;;;;;;0.70;0.70;;;4.80;99.80;;;;;;5041378;28;20202;-78
2022/05/30 02:30:35;;;;;;;0.70;0.70;;;4.70;99.90;;;;;;5040644;28;20230;-78
2022/05/30 02:38:29;;;;;;;0.60;0.60;;;4.60;99.90;;;;;;5038985;28;20207;-78
2022/05/30 02:40:55;;;;;;;0.70;0.70;;;4.60;95.80;;;;;;5039919;28;20570;-78
2022/05/30 02:43:20;;;;;;;0.80;0.80;;;4.60;73.90;;;;;;5039289;28;20183;-78
2022/05/30 02:45:46;;;;;;;0.70;0.70;;;4.50;48.80;;;;;;5041037;28;20187;-78
2022/05/30 02:48:12;;;;;;;0.70;0.70;;;4.50;50.60;;;;;;5040015;28;20186;-77
2022/05/30 02:50:38;;;;;;;0.67;0.67;;;4.50;57.80;;;;;;5036098;28;20176;-78
2022/05/30 02:53:03;;;;;;;0.70;0.70;;;4.50;56.50;;;;;;5035317;28;20563;-77
2022/05/30 02:55:29;;;;;;;0.70;0.70;;;4.50;56.40;;;;;;5037289;28;20203;-78
2022/05/30 02:57:54;;;;;;;0.60;0.60;;;4.40;82.30;;;;;;5034634;28;20172;-77
2022/05/30 03:00:20;;;;;;;0.70;0.70;;;4.40;86.60;;;;;;5034297;28;20172;-77
2022/05/30 03:02:46;;;;;;;0.70;0.70;;;4.40;75.50;;;;;;5039363;28;20593;-78
2022/05/30 03:05:11;;;;;;;0.80;0.80;;;4.30;99.90;;;;;;5040200;28;20176;-78
2022/05/30 03:07:37;;;;;;;0.70;0.70;;;4.30;99.90;;;;;;5038648;28;20718;-78
2022/05/30 03:10:03;;;;;;;0.70;0.70;;;4.30;99.90;;;;;;5040047;28;20182;-78
2022/05/30 03:12:29;;;;;;;0.80;0.80;;;4.30;99.90;;;;;;5041528;28;20199;-79
2022/05/30 03:14:55;;;;;;;0.77;0.77;;;4.30;96.00;;;;;;5050699;28;20176;-78
2022/05/30 03:17:20;;;;;;;0.70;0.70;;;4.30;77.30;;;;;;5050148;28;20641;-78
2022/05/30 03:19:46;;;;;;;0.73;0.73;;;4.30;79.00;;;;;;5048203;28;20219;-77
2022/05/30 03:22:12;;;;;;;0.77;0.77;;;4.30;90.00;;;;;;5049218;28;20226;-78
2022/05/30 03:24:37;;;;;;;0.80;0.80;;;4.30;99.50;;;;;;5043549;28;20176;-77
2022/05/30 03:27:03;;;;;;;0.60;0.60;;;4.30;99.90;;;;;;5038783;28;20218;-78
2022/05/30 03:29:28;;;;;;;0.70;0.70;;;4.30;96.00;;;;;;5038371;28;20188;-77
2022/05/30 03:31:54;;;;;;;0.70;0.70;;;4.30;85.20;;;;;;5039606;28;20326;-77
2022/05/30 03:34:20;;;;;;;0.70;0.70;;;4.30;75.40;;;;;;5039543;28;20270;-77
2022/05/30 03:36:46;;;;;;;0.60;0.60;;;4.30;82.00;;;;;;5039827;28;20169;-78
2022/05/30 03:39:13;;;;;;;0.67;0.67;;;4.30;86.30;;;;;;5039849;28;20273;-78
2022/05/30 03:41:39;;;;;;;0.70;0.70;;;4.30;49.20;;;;;;5038775;28;20677;-78
2022/05/30 03:44:04;;;;;;;0.80;0.80;;;4.30;44.00;;;;;;5039504;28;20179;-77
2022/05/30 03:46:31;;;;;;;0.70;0.70;;;4.30;52.30;;;;;;5038793;28;20633;-77
2022/05/30 03:48:57;;;;;;;0.80;0.80;;;4.20;73.40;;;;;;5035519;28;20183;-78
2022/05/30 03:51:23;;;;;;;0.70;0.70;;;4.20;96.60;;;;;;5035063;28;20221;-78
2022/05/30 03:53:51;;;;;;;0.70;0.70;;;4.20;99.90;;;;;;5036026;28;20267;-78
2022/05/30 03:56:17;;;;;;;0.70;0.70;;;4.20;99.90;;;;;;5034764;28;20233;-78
2022/05/30 03:58:42;;;;;;;0.77;0.77;;;4.20;96.00;;;;;;5034746;28;20451;-78
2022/05/30 04:01:08;;;;;;;0.70;0.70;;;4.30;94.80;;;;;;5033732;28;20664;-78
2022/05/30 04:03:34;;;;;;;0.80;0.80;;;4.30;99.90;;;;;;5032292;28;20175;-77
2022/05/30 04:06:00;;;;;;;0.70;0.70;;;4.30;99.90;;;;;;5034128;28;20180;-78
2022/05/30 04:08:26;;;;;;;0.70;0.70;;;4.40;99.90;;;;;;5033573;28;20233;-78
2022/05/30 04:10:51;;;;;;;0.70;0.70;;;4.50;99.90;;;;;;5032512;28;20160;-78
2022/05/30 04:13:17;;;;;;;0.80;0.80;;;4.50;99.90;;;;;;5033618;28;20179;-77
2022/05/30 04:15:42;;;;;;;0.80;0.80;;;4.50;99.90;;;;;;5033723;28;20176;-78
2022/05/30 04:18:08;;;;;;;0.80;0.80;;;4.50;99.90;;;;;;5040522;28;20219;-78
2022/05/30 04:20:34;;;;;;;0.70;0.70;;;4.60;99.90;;;;;;5046202;28;20195;-78
2022/05/30 04:23:00;;;;;;;0.70;0.70;;;4.60;95.30;;;;;;5045635;28;20195;-77
2022/05/30 04:25:26;;;;;;;0.70;0.70;;;4.60;96.00;;;;;;5045763;28;20176;-77
2022/05/30 04:27:51;;;;;;;0.70;0.70;;;4.70;99.90;;;;;;5042326;28;20315;-77
2022/05/30 04:30:18;;;;;;;0.80;0.80;;;4.90;99.90;;;;;;5044293;28;20184;-78
2022/05/30 04:32:44;;;;;;;0.60;0.60;;;5.10;99.90;;;;;;5036020;28;20283;-77
2022/05/30 04:35:10;;;;;;;0.80;0.80;;;5.30;83.70;;;;;;5045058;28;20184;-77
2022/05/30 04:37:36;;;;;;;0.70;0.70;;;5.50;36.40;;;;;;5045011;28;20176;-77
2022/05/30 04:40:02;;;;;;;0.67;0.67;;;5.70;1.00;;;;;;5044775;28;20356;-77
2022/05/30 04:42:28;;;;;;;0.60;0.60;;;5.70;1.00;;;;;;5045675;28;20192;-77
2022/05/30 04:44:53;;;;;;;0.67;0.67;;;5.80;1.00;;;;;;5047811;28;20230;-77
2022/05/30 04:47:19;;;;;;;0.60;0.60;;;6.00;1.00;;;;;;5045962;28;20182;-77
2022/05/30 04:49:47;;;;;;;0.70;0.70;;;6.20;1.00;;;;;;5047281;28;20210;-77
2022/05/30 04:52:12;;;;;;;0.60;0.60;;;6.40;1.00;;;;;;5041962;28;20192;-77
2022/05/30 04:54:38;;;;;;;0.60;0.60;;;6.70;1.00;;;;;;5040437;28;20183;-77
2022/05/30 04:57:05;;;;;;;0.70;0.70;;;6.90;1.00;;;;;;5035866;28;20494;-77
2022/05/30 04:59:31;;;;;;;0.50;0.50;;;7.10;1.00;;;;;;5035290;28;20215;-77
2022/05/30 05:01:56;;;;;;;0.60;0.60;;;7.10;1.00;;;;;;5036407;28;20710;-76
2022/05/30 05:04:22;;;;;;;0.50;0.50;;;7.20;1.00;;;;;;5035856;28;20335;-76
2022/05/30 05:06:49;;;;;;;0.53;0.53;;;7.20;1.00;;;;;;5035341;28;20199;-76
2022/05/30 05:09:17;;;;;;;0.60;0.60;;;7.20;1.00;;;;;;5034160;28;20222;-77
2022/05/30 05:11:44;;;;;;;0.50;0.50;;;7.20;1.00;;;;;;5034725;28;20204;-77
2022/05/30 05:14:11;;;;;;;0.60;0.60;;;7.30;1.00;;;;;;5034848;28;20736;-75
2022/05/30 05:16:37;;;;;;;0.60;0.60;;;7.20;1.00;;;;;;5034514;28;20186;-77
2022/05/30 05:19:04;;;;;;;0.60;0.60;;;7.10;1.00;;;;;;5034297;28;20203;-76
2022/05/30 05:21:35;;;;;;;0.60;0.60;;;7.00;1.00;;;;;;5031799;28;20222;-76
2022/05/30 05:24:02;;;;;;;0.60;0.60;;;7.00;1.00;;;;;;5034141;28;20175;-73
2022/05/30 05:26:28;;;;;;;0.60;0.60;;;7.10;1.00;;;;;;5034634;28;20175;-72
2022/05/30 05:28:54;;;;;;;0.70;0.70;;;7.20;1.00;;;;;;5034117;28;20178;-73
2022/05/30 05:31:24;;;;;;;0.63;0.63;;;7.40;1.00;;;;;;5034437;28;20242;-73
2022/05/30 05:33:50;;;;;;;0.60;0.60;;;7.70;1.00;;;;;;5034641;28;20179;-73
2022/05/30 05:36:24;;;;;;;0.50;0.50;;;7.90;1.00;;;;;;5034350;28;20172;-73
2022/05/30 05:38:50;;;;;;;0.50;0.50;;;7.70;1.00;;;;;;5034563;28;20215;-75
2022/05/30 05:41:16;;;;;;;0.60;0.60;;;7.50;1.00;;;;;;5032683;28;20200;-75
2022/05/30 05:43:42;;;;;;;0.60;0.60;;;7.60;1.00;;;;;;5030397;28;20501;-75
2022/05/30 05:46:15;;;;;;;0.60;0.60;;;7.70;1.00;;;;;;5027036;28;20184;-76
2022/05/30 05:48:40;;;;;;;0.60;0.60;;;7.80;1.00;;;;;;5032993;28;20263;-75
2022/05/30 05:51:06;;;;;;;0.57;0.57;;;8.00;1.00;;;;;;5033289;28;20287;-75
2022/05/30 05:53:31;;;;;;;0.67;0.67;;;8.00;1.00;;;;;;5032466;28;20180;-75
2022/05/30 05:55:57;;;;;;;0.60;0.60;;;8.10;1.00;;;;;;5034151;28;20172;-75
2022/05/30 05:58:23;;;;;;;0.50;0.50;;;8.20;1.00;;;;;;5033884;28;20210;-75
2022/05/30 06:00:49;;;;;;;0.70;0.70;;;8.20;1.00;;;;;;5034000;28;20392;-76
2022/05/30 06:03:14;;;;;;;0.60;0.60;;;8.40;1.00;;;;;;5033669;28;20262;-75
2022/05/30 06:05:40;;;;;;;0.60;0.60;;;8.70;1.00;;;;;;5032834;28;20172;-75
2022/05/30 06:08:07;;;;;;;0.50;0.50;;;8.80;1.00;;;;;;5033456;28;20612;-75
2022/05/30 06:10:33;;;;;;;0.50;0.50;;;9.00;1.00;;;;;;5032577;28;20695;-75
2022/05/30 06:13:18;;;;;;;0.57;0.57;;;9.10;1.00;;;;;;5033500;28;20176;-75
2022/05/30 06:15:43;;;;;;;0.50;0.50;;;9.00;1.00;;;;;;5032892;28;20525;-75
2022/05/30 06:18:09;;;;;;;0.60;0.60;;;9.10;1.00;;;;;;5033465;28;20293;-75
2022/05/30 06:20:34;;;;;;;0.53;0.53;;;9.20;1.00;;;;;;5033075;28;20190;-75
2022/05/30 06:23:00;;;;;;;0.57;0.57;;;9.30;1.00;;;;;;5033535;28;20207;-75
2022/05/30 06:25:25;;;;;;;0.57;0.57;;;9.50;1.00;;;;;;5029588;28;20176;-75
2022/05/30 06:27:51;;;;;;;0.50;0.50;;;9.70;99.90;;;;;;5033220;28;20175;-75
2022/05/30 06:30:16;;;;;;;0.50;0.50;;;9.70;99.90;;;;;;5032519;28;20176;-74
2022/05/30 06:32:42;;;;;;;0.70;0.70;;;9.80;99.90;;;;;;5031011;28;20289;-74
2022/05/30 06:35:08;;;;;;;0.60;0.60;;;9.70;99.90;;;;;;5033418;28;20176;-74
2022/05/30 06:37:33;;;;;;;0.50;0.50;;;9.80;99.90;;;;;;5033498;28;20657;-74
2022/05/30 06:39:59;;;;;;;0.57;0.57;;;9.70;99.90;;;;;;5032325;28;20203;-75
2022/05/30 06:42:26;;;;;;;0.57;0.57;;;9.80;1.00;;;;;;5033089;28;20191;-76
2022/05/30 06:44:51;;;;;;;0.60;0.60;;;10.00;99.90;;;;;;5032988;28;20509;-75
2022/05/30 06:47:17;;;;;;;0.50;0.50;;;10.00;1.00;;;;;;5033667;28;20172;-74
2022/05/30 06:49:42;;;;;;;0.50;0.50;;;10.10;99.90;;;;;;5032598;28;20179;-75
2022/05/30 06:52:08;;;;;;;0.70;0.70;;;10.20;1.00;;;;;;5031981;28;20199;-75
2022/05/30 06:54:34;;;;;;;0.60;0.60;;;10.10;99.90;;;;;;5029347;28;20641;-74
2022/05/30 06:59:44;;;;;;;0.50;0.50;;;10.10;1.00;;;;;;5031143;28;20265;-75
2022/05/30 07:02:09;;;;;;;0.60;0.60;;;10.30;99.90;;;;;;5031782;28;20270;-75
2022/05/30 07:04:35;;;;;;;0.70;0.70;;;10.60;51.60;;;;;;5032592;28;20188;-75
2022/05/30 07:07:06;;;;;;;0.50;0.50;;;11.00;1.00;;;;;;5032464;28;20198;-74
2022/05/30 07:09:32;;;;;;;0.60;0.60;;;11.00;99.90;;;;;;5031156;28;20709;-75
2022/05/30 07:11:57;;;;;;;0.50;0.50;;;11.20;99.90;;;;;;5032082;28;20200;-75
2022/05/30 07:14:23;;;;;;;0.43;0.43;;;11.40;1.00;;;;;;5030077;28;20562;-76
2022/05/30 07:16:49;;;;;;;0.40;0.40;;;11.50;1.00;;;;;;5031734;28;20191;-75
2022/05/30 07:19:15;;;;;;;0.50;0.50;;;11.70;1.00;;;;;;5031199;28;20306;-76
2022/05/30 07:21:41;;;;;;;0.50;0.50;;;11.90;1.00;;;;;;5031554;28;20688;-76
2022/05/30 07:24:07;;;;;;;0.50;0.50;;;12.20;1.00;;;;;;5031601;28;20203;-74
2022/05/30 07:26:32;;;;;;;0.50;0.50;;;12.40;99.90;;;;;;5031181;28;20212;-75
2022/05/30 07:28:58;;;;;;;0.40;0.40;;;12.50;1.00;;;;;;5031806;28;20187;-75
2022/05/30 07:31:29;;;;;;;0.40;0.40;;;12.80;99.90;;;;;;5032077;28;20203;-75
2022/05/30 07:33:55;;;;;;;0.40;0.40;;;13.10;1.00;;;;;;5032317;28;20196;-75
2022/05/30 07:36:32;;;;;;;0.40;0.40;;;13.40;99.90;;;;;;5032318;28;20180;-75
2022/05/30 07:38:58;;;;;;;0.40;0.40;;;13.50;99.90;;;;;;5029193;28;20220;-77
2022/05/30 07:41:26;;;;;;;0.40;0.40;;;13.90;99.90;;;;;;5032073;28;20258;-76
2022/05/30 07:43:51;;;;;;;0.40;0.40;;;14.30;99.90;;;;;;5033525;28;20259;-76
2022/05/30 07:46:19;;;;;;;0.50;0.50;;;14.80;18.80;;;;;;5032876;28;20210;-76
2022/05/30 07:48:45;;;;;;;0.30;0.30;;;15.20;13.90;;;;;;5030729;28;20176;-76
2022/05/30 07:51:13;;;;;;;0.40;0.40;;;15.50;1.00;;;;;;5031380;28;20196;-75
2022/05/30 07:53:40;;;;;;;0.50;0.50;;;16.00;1.00;;;;;;5031658;28;20168;-75
2022/05/30 07:56:07;;;;;;;0.40;0.40;;;16.70;1.00;;;;;;5031908;28;20652;-75
2022/05/30 07:58:33;;;;;;;0.40;0.40;;;17.30;1.00;;;;;;5031491;28;20223;-75
2022/05/30 08:00:59;;;;;;;0.30;0.30;;;17.60;1.00;;;;;;5030289;28;20188;-76
2022/05/30 08:03:26;;;;;;;0.30;0.30;;;17.80;1.00;;;;;;5030976;28;20337;-76
2022/05/30 08:06:01;;;;;;;0.40;0.40;;;17.90;1.00;;;;;;5032403;28;20199;-76
2022/05/30 08:08:27;;;;;;;0.40;0.40;;;18.30;1.00;;;;;;5031602;28;20282;-76
2022/05/30 08:10:53;;;;;;;0.30;0.30;;;18.80;1.00;;;;;;5025027;28;20330;-76
2022/05/30 08:13:19;;;;;;;0.30;0.30;;;19.00;1.00;;;;;;5031633;28;20218;-76
2022/05/30 08:15:44;;;;;;;0.40;0.40;;;19.30;1.00;;;;;;5029068;28;20372;-75
2022/05/30 08:18:15;;;;;;;0.40;0.40;;;19.70;1.00;;;;;;5019749;28;20207;-75
2022/05/30 08:20:40;;;;;;;0.37;0.37;;;19.90;1.00;;;;;;5026781;28;20182;-76
2022/05/30 08:23:07;;;;;;;0.40;0.40;;;19.80;1.00;;;;;;5031540;28;20172;-76
2022/05/30 08:25:33;;;;;;;0.40;0.40;;;19.90;1.00;;;;;;5031148;28;20210;-75
2022/05/30 08:27:58;;;;;;;0.40;0.40;;;20.20;1.00;;;;;;5030638;28;20628;-75
2022/05/30 08:30:24;;;;;;;0.40;0.40;;;20.50;1.00;;;;;;5028455;28;20278;-75
2022/05/30 08:32:50;;;;;;;0.30;0.30;;;20.40;1.00;;;;;;5030875;28;20188;-75
2022/05/30 08:35:17;;;;;;;0.40;0.40;;;20.60;1.00;;;;;;5031118;28;20479;-76
2022/05/30 08:37:43;;;;;;;0.30;0.30;;;20.60;1.00;;;;;;5030009;28;20709;-75
2022/05/30 08:43:25;;;;;;;0.40;0.40;;;20.60;1.00;;;;;;5026677;28;20233;-76
2022/05/30 08:45:56;;;;;;;0.40;0.40;;;20.70;1.00;;;;;;5031366;28;20179;-76
2022/05/30 08:48:42;;;;;;;0.40;0.40;;;20.20;1.00;;;;;;5031419;28;20218;-75
2022/05/30 08:51:30;;;;;;;0.30;0.30;;;20.30;1.00;;;;;;5030857;28;20192;-75
2022/05/30 08:54:17;;;;;;;0.30;0.30;;;20.70;1.00;;;;;;5031212;28;20268;-75
2022/05/30 08:56:47;;;;;;;0.30;0.30;;;21.10;1.00;;;;;;5031477;28;20194;-75
2022/05/30 08:59:15;;;;;;;0.30;0.30;;;21.30;1.00;;;;;;5030766;28;20223;-75
2022/05/30 09:01:46;;;;;;;0.30;0.30;;;21.70;1.00;;;;;;5030947;28;20234;-74
2022/05/30 09:04:34;;;;;;;0.20;0.20;;;21.80;1.00;;;;;;5031018;28;20221;-75
2022/05/30 09:07:16;;;;;;;0.30;0.30;;;21.50;1.00;;;;;;5031316;28;20458;-75
2022/05/30 09:09:58;;;;;;;0.30;0.30;;;20.90;1.00;;;;;;5030608;28;20180;-75
2022/05/30 09:12:33;;;;;;;0.30;0.30;;;20.90;1.00;;;;;;5031066;28;20204;-75
2022/05/30 09:15:16;;;;;;;0.30;0.30;;;21.00;1.00;;;;;;5030939;28;20595;-75
2022/05/30 09:17:50;;;;;;;0.30;0.30;;;20.80;1.00;;;;;;5031071;28;20172;-74
2022/05/30 09:20:20;;;;;;;0.30;0.30;;;20.70;1.00;;;;;;5030287;28;20226;-77
2022/05/30 09:22:47;;;;;;;0.40;0.40;;;20.90;1.00;;;;;;5030899;28;20188;-74
2022/05/30 09:28:15;;;;;;;0.30;0.30;;;21.80;1.00;;;;;;5030864;28;20190;-76
2022/05/30 09:30:50;;;;;;;0.30;0.30;;;21.50;1.00;;;;;;5030260;28;20195;-75
2022/05/30 09:33:29;;;;;;;0.30;0.30;;;21.20;1.00;;;;;;5030937;28;20648;-76
2022/05/30 09:36:28;;;;;;;0.30;0.30;;;21.70;1.00;;;;;;5030696;28;20194;-75
2022/05/30 09:39:05;;;;;;;0.33;0.33;;;21.40;1.00;;;;;;5030396;28;20295;-77
2022/05/30 09:41:39;;;;;;;0.30;0.30;;;20.50;1.00;;;;;;5033727;28;20202;-76
2022/05/30 09:44:10;;;;;;;0.30;0.30;;;20.10;1.00;;;;;;5034322;28;20179;-76
2022/05/30 09:46:56;;;;;;;0.37;0.37;;;19.90;1.00;;;;;;5034339;28;20168;-76
2022/05/30 09:49:43;;;;;;;0.30;0.30;;;19.30;1.00;;;;;;5033798;28;20184;-75
2022/05/30 09:52:27;;;;;;;0.30;0.30;;;18.90;1.00;;;;;;5024533;28;20200;-75
2022/05/30 09:54:54;;;;;;;0.37;0.37;;;18.50;1.00;;;;;;5033874;28;20260;-75
2022/05/30 09:57:27;;;;;;;0.30;0.30;;;18.20;1.00;;;;;;5034271;28;20175;-75
2022/05/30 09:59:55;;;;;;;0.30;0.30;;;18.00;1.00;;;;;;5033490;28;20215;-74
2022/05/30 10:02:32;;;;;;;0.37;0.37;;;17.90;1.00;;;;;;5033725;28;20200;-75
2022/05/30 10:05:02;;;;;;;0.40;0.40;;;17.90;1.00;;;;;;5033724;28;20207;-75
2022/05/30 10:07:29;;;;;;;0.30;0.30;;;18.20;1.00;;;;;;5034349;28;20175;-75
2022/05/30 10:10:00;;;;;;;0.30;0.30;;;19.30;1.00;;;;;;5033541;28;20179;-76
2022/05/30 10:12:44;;;;;;;0.33;0.33;;;19.90;1.00;;;;;;5033814;28;20253;-75
2022/05/30 10:15:27;;;;;;;0.30;0.30;;;20.10;1.00;;;;;;5020838;28;20222;-75
2022/05/30 10:17:55;;;;;;;0.30;0.30;;;19.50;1.00;;;;;;5031317;28;20191;-74
2022/05/30 10:20:37;;;;;;;0.30;0.30;;;18.90;1.00;;;;;;5033576;28;20275;-75
2022/05/30 10:29:19;;;;;;;0.30;0.30;;;20.30;1.00;;;;;;5033328;28;20551;-75
2022/05/30 10:32:00;;;;;;;0.30;0.30;;;21.20;1.00;;;;;;5031769;28;20281;-75
2022/05/30 10:34:43;;;;;;;0.40;0.40;;;21.60;1.00;;;;;;5033659;28;20279;-74
2022/05/30 10:37:25;;;;;;;0.40;0.40;;;21.70;1.00;;;;;;5033524;28;20225;-75
2022/05/30 10:40:18;;;;;;;0.30;0.30;;;21.00;1.00;;;;;;5030841;28;20648;-75
2022/05/30 10:42:59;;;;;;;0.33;0.33;;;21.00;1.00;;;;;;5033310;28;20198;-74
2022/05/30 10:45:52;;;;;;;0.30;0.30;;;21.70;1.00;;;;;;5033387;28;20171;-75
2022/05/30 10:48:27;;;;;;;0.30;0.30;;;22.00;1.00;;;;;;5026580;28;20192;-74
2022/05/30 10:51:16;;;;;;;0.30;0.30;;;21.80;1.00;;;;;;5032035;28;20262;-74
2022/05/30 10:53:54;;;;;;;0.30;0.30;;;22.00;1.00;;;;;;5029931;28;20184;-75
2022/05/30 10:56:34;;;;;;;0.30;0.30;;;22.40;1.00;;;;;;5031008;28;20203;-73
2022/05/30 10:59:26;;;;;;;0.30;0.30;;;22.30;1.00;;;;;;5012451;28;20222;-74
2022/05/30 11:02:05;;;;;;;0.40;0.40;;;22.90;1.00;;;;;;5013293;28;20219;-74
2022/05/30 11:04:52;;;;;;;0.40;0.40;;;22.80;1.00;;;;;;5025491;28;20214;-74
2022/05/30 11:07:39;;;;;;;0.40;0.40;;;23.20;1.00;;;;;;5032682;28;20694;-73
2022/05/30 11:10:45;;;;;;;0.30;0.30;;;23.00;1.00;;;;;;5029757;28;20196;-74
2022/05/30 11:13:48;;;;;;;0.30;0.30;;;22.90;1.00;;;;;;5029734;28;20290;-75
2022/05/30 11:16:31;;;;;;;0.30;0.30;;;22.70;1.00;;;;;;5027169;28;20179;-75
2022/05/30 11:19:18;;;;;;;0.40;0.40;;;21.90;1.00;;;;;;5033110;28;20420;-74
2022/05/30 11:21:56;;;;;;;0.30;0.30;;;22.10;1.00;;;;;;5029121;28;20293;-75
2022/05/30 11:24:21;;;;;;;0.40;0.40;;;22.60;1.00;;;;;;5032677;28;20176;-75
2022/05/30 11:27:20;;;;;;;0.40;0.40;;;23.20;1.00;;;;;;5032332;28;20233;-75
2022/05/30 11:30:20;;;;;;;0.40;0.40;;;23.90;1.00;;;;;;5032069;28;20175;-74
2022/05/30 11:32:54;;;;;;;0.40;0.40;;;24.20;1.00;;;;;;5032757;28;20286;-75
2022/05/30 11:35:32;;;;;;;0.30;0.30;;;23.70;1.00;;;;;;5032593;28;20172;-76
2022/05/30 11:38:23;;;;;;;0.37;0.37;;;23.30;1.00;;;;;;5032226;28;20187;-75
2022/05/30 11:40:57;;;;;;;0.33;0.33;;;22.60;1.00;;;;;;5031777;28;20208;-74
2022/05/30 11:43:53;;;;;;;0.30;0.30;;;21.70;1.00;;;;;;5032381;28;20176;-75
2022/05/30 11:46:32;;;;;;;0.33;0.33;;;21.00;1.00;;;;;;5030164;28;20183;-75
2022/05/30 11:49:14;;;;;;;0.30;0.30;;;20.50;1.00;;;;;;5011733;28;20605;-74
2022/05/30 11:52:02;;;;;;;0.30;0.30;;;20.20;1.00;;;;;;5020897;28;20720;-75
2022/05/30 11:54:51;;;;;;;0.30;0.30;;;20.00;1.00;;;;;;5032049;28;20183;-78
2022/05/30 11:57:30;;;;;;;0.30;0.30;;;21.10;1.00;;;;;;5032324;28;20186;-75
2022/05/30 12:00:07;;;;;;;0.40;0.40;;;22.20;1.00;;;;;;5031522;28;20235;-77
2022/05/30 12:02:51;;;;;;;0.30;0.30;;;22.70;1.00;;;;;;5031068;28;20211;-75
2022/05/30 12:05:22;;;;;;;0.30;0.30;;;22.10;1.00;;;;;;5032213;28;20270;-75
2022/05/30 12:07:54;;;;;;;0.40;0.40;;;21.60;1.00;;;;;;5031513;28;20176;-75
2022/05/30 12:10:47;;;;;;;0.40;0.40;;;21.10;1.00;;;;;;5030840;28;20330;-75
2022/05/30 12:13:25;;;;;;;0.33;0.33;;;21.40;1.00;;;;;;5025780;28;20198;-74
2022/05/30 12:16:08;;;;;;;0.40;0.40;;;22.10;1.00;;;;;;5030539;28;20629;-75
2022/05/30 12:24:19;;;;;;;0.40;0.40;;;24.20;1.00;;;;;;5030149;28;20230;-76
2022/05/30 12:26:54;;;;;;;0.30;0.30;;;24.60;1.00;;;;;;5023121;28;20222;-74
2022/05/30 12:29:39;;;;;;;0.40;0.40;;;24.50;1.00;;;;;;5029112;28;20179;-74
2022/05/30 12:32:29;;;;;;;0.40;0.40;;;24.70;1.00;;;;;;5030436;28;20360;-73
2022/05/30 12:34:58;;;;;;;0.47;0.47;;;24.90;1.00;;;;;;5029692;28;20523;-75
2022/05/30 12:37:45;;;;;;;0.37;0.37;;;24.90;1.00;;;;;;5031003;28;20249;-74
2022/05/30 12:40:32;;;;;;;0.50;0.50;;;24.70;1.00;;;;;;5029851;28;20207;-75
2022/05/30 12:43:22;;;;;;;0.40;0.40;;;24.30;1.00;;;;;;5029185;28;20669;-75
2022/05/30 12:45:54;;;;;;;0.33;0.33;;;23.70;1.00;;;;;;5030883;28;20179;-75
2022/05/30 12:48:28;;;;;;;0.50;0.50;;;23.00;1.00;;;;;;5031164;28;20175;-75
2022/05/30 12:50:53;;;;;;;0.40;0.40;;;23.00;1.00;;;;;;5027849;28;20266;-75
2022/05/30 12:53:21;;;;;;;0.37;0.37;;;22.50;1.00;;;;;;5030795;28;20701;-74
2022/05/30 12:55:50;;;;;;;0.30;0.30;;;22.10;1.00;;;;;;5030633;28;20180;-74
2022/05/30 12:58:20;;;;;;;0.27;0.27;;;22.40;1.00;;;;;;5031071;28;20186;-75
2022/05/30 13:01:26;;;;;;;0.30;0.30;;;22.90;1.00;;;;;;5030596;28;20250;-75
2022/05/30 13:04:15;;;;;;;0.30;0.30;;;23.20;1.00;;;;;;5030064;28;20258;-73
2022/05/30 13:06:56;;;;;;;0.30;0.30;;;23.40;1.00;;;;;;5027686;28;20609;-71
2022/05/30 13:09:23;;;;;;;0.30;0.30;;;23.60;1.00;;;;;;5028590;28;20183;-73
2022/05/30 13:11:59;;;;;;;0.30;0.30;;;22.80;1.00;;;;;;5030022;28;20203;-72
2022/05/30 13:14:36;;;;;;;0.40;0.40;;;22.00;1.00;;;;;;5031006;28;20186;-70
2022/05/30 13:17:30;;;;;;;0.30;0.30;;;22.20;1.00;;;;;;5032599;28;20640;-73
2022/05/30 13:20:08;;;;;;;0.30;0.30;;;22.30;1.00;;;;;;5028579;28;20225;-73
2022/05/30 13:22:34;;;;;;;0.30;0.30;;;21.70;1.00;;;;;;5031914;28;20199;-72
2022/05/30 13:25:01;;;;;;;0.30;0.30;;;21.50;1.00;;;;;;5034476;28;20172;-73
2022/05/30 13:27:28;;;;;;;0.30;0.30;;;21.50;1.00;;;;;;5034989;28;20168;-73
2022/05/30 13:29:54;;;;;;;0.30;0.30;;;21.10;1.00;;;;;;5033346;28;20290;-73
2022/05/30 13:32:22;;;;;;;0.30;0.30;;;21.20;1.00;;;;;;5033270;28;20212;-73
2022/05/30 13:34:51;;;;;;;0.30;0.30;;;21.00;1.00;;;;;;5033749;28;20172;-73
2022/05/30 13:37:44;;;;;;;0.30;0.30;;;20.70;1.00;;;;;;5033384;28;20180;-73
2022/05/30 13:40:21;;;;;;;0.30;0.30;;;20.60;1.00;;;;;;5028213;28;20212;-74
2022/05/30 13:42:55;;;;;;;0.30;0.30;;;21.10;1.00;;;;;;5031995;28;20310;-75
2022/05/30 13:45:22;;;;;;;0.30;0.30;;;21.80;1.00;;;;;;5034435;28;20176;-74
2022/05/30 13:47:48;;;;;;;0.30;0.30;;;22.30;1.00;;;;;;5034201;28;20195;-74
2022/05/30 13:50:17;;;;;;;0.30;0.30;;;22.80;1.00;;;;;;5033906;28;20203;-74